Doagh, United Kingdom
Current Conditions -  °F | °C
As of 7:50 PM on Friday 19 Dec 2014 (Local Time) from EGAA Reporting Station
Broken Clouds Broken Clouds  
Wind Chill:   Ceiling: 3100
Heat Index:   Visibility: 6mi
Dew Point:   Wind: 18mph
Humidity: 87%   Direction: 250°WSW
Pressure: 30"   Gusts: NA
Location:  54.75°N, 6.08°W
Report Text: EGAA 191950Z 25016KT 9999 SCT025 BKN031 05/03 Q1016
Loading
Personal Weather Stations






























Interactive Weather Map New forecast layout! Learn more

10-Day Weather Forecast

Advertisements
Track Severe Weather on mobile